Terminal Aerodrome Forecast
Issued by NWS

Home | Current Version | Previous Version | Text Only | Print | Product List | Glossary Off
Versions: 1 2 3 4 5 6 7 8 9 10 11 12 13

198
FTUS43 KTOP 071133
TAFMHK
TAF
KMHK 071133Z 0712/0812 27009KT P6SM BKN150
     FM071700 30016G27KT P6SM SCT090
     FM080000 31013G23KT P6SM BKN060
     FM080800 31014G24KT P6SM SCT020 OVC035=

USA.gov is the U.S. government's official web portal to all federal, state and local government web resources and services.